createdAt,value
2018-12-14T00:00:23.310Z,22.60
2018-12-14T00:02:52.339Z,22.70
2018-12-14T00:05:21.964Z,22.70
2018-12-14T00:07:51.079Z,22.60
2018-12-14T00:10:20.199Z,22.60
2018-12-14T00:12:49.925Z,22.60
2018-12-14T00:15:18.721Z,22.60
2018-12-14T00:17:47.736Z,22.60
2018-12-14T00:20:16.728Z,22.60
2018-12-14T00:22:45.858Z,22.60
2018-12-14T00:25:14.851Z,22.60
2018-12-14T00:27:43.878Z,22.60
2018-12-14T00:30:13.033Z,22.60
2018-12-14T00:32:42.008Z,22.60
2018-12-14T00:35:11.022Z,22.60
2018-12-14T00:37:40.044Z,22.60
2018-12-14T00:40:08.950Z,22.60
2018-12-14T00:42:37.973Z,22.60
2018-12-14T00:45:06.938Z,22.60
2018-12-14T00:47:36.070Z,22.60
2018-12-14T00:50:05.378Z,22.60
2018-12-14T00:52:34.416Z,22.60
2018-12-14T00:55:03.915Z,22.60
2018-12-14T00:57:32.967Z,22.60
2018-12-14T01:00:01.971Z,22.50
2018-12-14T01:02:31.043Z,22.60
2018-12-14T01:04:59.919Z,22.60
2018-12-14T01:07:29.413Z,22.60
2018-12-14T01:09:58.396Z,22.60
2018-12-14T01:12:27.428Z,22.60
2018-12-14T01:14:56.534Z,22.60
2018-12-14T01:17:25.510Z,22.50
2018-12-14T01:19:54.530Z,22.50
2018-12-14T01:22:23.751Z,22.50
2018-12-14T01:24:52.860Z,22.50
2018-12-14T01:27:21.880Z,22.60
2018-12-14T01:29:50.714Z,22.60
2018-12-14T01:32:20.113Z,22.50
2018-12-14T01:34:49.122Z,22.60
2018-12-14T01:37:18.430Z,22.60
2018-12-14T01:39:47.544Z,22.50
2018-12-14T01:42:16.854Z,22.50
2018-12-14T01:44:45.955Z,22.50
2018-12-14T01:47:14.970Z,22.50
2018-12-14T01:49:43.992Z,22.50
2018-12-14T01:52:13.102Z,22.60
2018-12-14T01:54:41.999Z,22.60
2018-12-14T01:57:11.042Z,22.50
2018-12-14T01:59:40.318Z,22.50
2018-12-14T02:02:09.352Z,22.50
2018-12-14T02:04:38.743Z,22.50
2018-12-14T02:07:07.787Z,22.50
2018-12-14T02:09:36.792Z,22.50
2018-12-14T02:12:11.291Z,22.50
2018-12-14T02:14:36.973Z,22.50
2018-12-14T02:17:05.867Z,22.50
2018-12-14T02:19:34.888Z,22.50
2018-12-14T02:22:04.087Z,22.50
2018-12-14T02:24:33.111Z,22.50
2018-12-14T02:27:02.137Z,22.50
2018-12-14T02:29:31.139Z,22.50
2018-12-14T02:32:00.392Z,22.50
2018-12-14T02:34:29.299Z,22.50
2018-12-14T02:36:58.257Z,22.50
2018-12-14T02:39:27.610Z,22.50
2018-12-14T02:41:56.517Z,22.50
2018-12-14T02:44:25.545Z,22.50
2018-12-14T02:46:54.699Z,22.50
2018-12-14T02:49:23.828Z,22.40
2018-12-14T02:51:53.114Z,22.50
2018-12-14T02:54:22.259Z,22.50
2018-12-14T02:56:51.175Z,22.40
2018-12-14T02:59:20.181Z,22.40
2018-12-14T03:01:49.210Z,22.50
2018-12-14T03:04:18.306Z,22.40
2018-12-14T03:06:47.209Z,22.50
2018-12-14T03:09:16.118Z,22.50
2018-12-14T03:11:45.218Z,22.50
2018-12-14T03:14:14.350Z,22.40
2018-12-14T03:16:43.344Z,22.50
2018-12-14T03:19:12.468Z,22.50
2018-12-14T03:21:41.480Z,22.40
2018-12-14T03:24:10.589Z,22.50
2018-12-14T03:26:39.582Z,22.40
2018-12-14T03:29:08.641Z,22.50
2018-12-14T03:31:37.939Z,22.40
2018-12-14T03:34:06.931Z,22.50
2018-12-14T03:36:35.958Z,22.50
2018-12-14T03:39:06.239Z,22.40
2018-12-14T03:41:35.296Z,22.50
2018-12-14T03:44:04.250Z,22.50
2018-12-14T03:46:33.433Z,22.50
2018-12-14T03:49:03.147Z,22.40
2018-12-14T03:51:32.220Z,22.50
2018-12-14T03:54:01.273Z,22.50
2018-12-14T03:56:30.138Z,22.50
2018-12-14T03:58:59.208Z,22.50
2018-12-14T04:01:28.195Z,22.50
2018-12-14T04:03:57.310Z,22.50
2018-12-14T04:06:26.356Z,22.50
2018-12-14T04:08:55.333Z,22.60
2018-12-14T04:11:24.352Z,22.60
2018-12-14T04:13:54.053Z,22.60
2018-12-14T04:16:23.076Z,22.60
2018-12-14T04:18:52.212Z,22.60
2018-12-14T04:21:21.994Z,22.70
2018-12-14T04:23:51.114Z,22.70
2018-12-14T04:26:20.138Z,22.70
2018-12-14T04:28:49.770Z,22.60
2018-12-14T04:31:18.788Z,22.60
2018-12-14T04:33:47.840Z,22.70
2018-12-14T04:36:16.812Z,22.70
2018-12-14T04:38:45.919Z,22.80
2018-12-14T04:41:14.825Z,22.80
2018-12-14T04:43:43.833Z,22.80
2018-12-14T04:46:12.950Z,22.80
2018-12-14T04:48:41.950Z,22.90
2018-12-14T04:51:10.964Z,22.90
2018-12-14T04:53:40.089Z,22.90
2018-12-14T04:56:09.097Z,22.90
2018-12-14T04:58:38.510Z,22.80
2018-12-14T05:01:07.506Z,22.80
2018-12-14T05:03:36.641Z,22.80
2018-12-14T05:06:05.636Z,22.80
2018-12-14T05:08:34.752Z,22.80
2018-12-14T05:11:03.668Z,22.80
2018-12-14T05:13:32.881Z,22.80
2018-12-14T05:16:02.002Z,22.80
2018-12-14T05:18:31.010Z,22.90
2018-12-14T05:20:59.733Z,22.80
2018-12-14T05:23:28.797Z,22.90
2018-12-14T05:25:57.810Z,23.00
2018-12-14T05:28:26.737Z,23.00
2018-12-14T05:30:56.461Z,23.00
2018-12-14T05:33:25.592Z,23.10
2018-12-14T05:35:54.452Z,23.10
2018-12-14T05:38:23.344Z,23.10
2018-12-14T05:40:52.413Z,23.10
2018-12-14T05:43:21.439Z,23.10
2018-12-14T05:45:50.534Z,23.10
2018-12-14T05:48:19.554Z,23.10
2018-12-14T05:50:48.518Z,23.10
2018-12-14T05:53:17.457Z,23.10
2018-12-14T05:55:46.463Z,23.10
2018-12-14T05:58:15.476Z,23.10
2018-12-14T06:00:44.464Z,23.10
2018-12-14T06:03:13.500Z,23.10
2018-12-14T06:05:42.617Z,23.10
2018-12-14T06:08:11.626Z,23.10
2018-12-14T06:10:40.626Z,23.10
2018-12-14T06:13:09.861Z,23.10
2018-12-14T06:15:38.867Z,23.10
2018-12-14T06:18:08.005Z,23.10
2018-12-14T06:20:36.983Z,23.10
2018-12-14T06:23:05.991Z,23.10
2018-12-14T06:25:34.999Z,23.10
2018-12-14T06:28:04.019Z,23.10
2018-12-14T06:30:33.030Z,23.10
2018-12-14T06:33:02.069Z,23.10
2018-12-14T06:35:31.167Z,23.10
2018-12-14T06:38:00.283Z,23.10
2018-12-14T06:40:29.417Z,23.10
2018-12-14T06:42:58.510Z,23.10
2018-12-14T06:45:27.552Z,23.10
2018-12-14T06:47:57.346Z,23.00
2018-12-14T06:50:28.001Z,23.00
2018-12-14T06:52:57.441Z,23.00
2018-12-14T06:55:26.516Z,23.00
2018-12-14T06:57:55.512Z,23.00
2018-12-14T07:00:24.654Z,22.90
2018-12-14T07:02:53.628Z,23.00
2018-12-14T07:05:22.747Z,22.90
2018-12-14T07:07:51.860Z,22.90
2018-12-14T07:10:20.880Z,22.90
2018-12-14T07:12:49.899Z,22.90
2018-12-14T07:15:18.967Z,22.90
2018-12-14T07:17:48.085Z,22.90
2018-12-14T07:20:17.338Z,22.90
2018-12-14T07:22:46.556Z,22.90
2018-12-14T07:25:15.562Z,22.90
2018-12-14T07:27:44.581Z,22.90
2018-12-14T07:30:13.587Z,22.80
2018-12-14T07:32:42.621Z,22.90
2018-12-14T07:35:11.608Z,22.90
2018-12-14T07:37:40.622Z,22.90
2018-12-14T07:40:09.505Z,22.90
2018-12-14T07:42:38.639Z,22.90
2018-12-14T07:45:07.771Z,22.80
2018-12-14T07:47:36.733Z,22.80
2018-12-14T07:50:06.354Z,22.80
2018-12-14T07:52:35.391Z,22.80
2018-12-14T07:55:04.396Z,22.80
2018-12-14T07:57:33.510Z,22.80
2018-12-14T08:00:02.654Z,22.80
2018-12-14T08:02:32.083Z,22.80
2018-12-14T08:05:01.563Z,22.80
2018-12-14T08:07:30.677Z,22.80
2018-12-14T08:09:59.816Z,22.80
2018-12-14T08:12:28.901Z,22.80
2018-12-14T08:14:57.943Z,22.80
2018-12-14T08:17:27.035Z,22.80
2018-12-14T08:19:56.139Z,22.80
2018-12-14T08:22:25.257Z,22.80
2018-12-14T08:24:54.278Z,22.80
2018-12-14T08:27:23.298Z,22.80
2018-12-14T08:29:52.092Z,22.80
2018-12-14T08:32:21.191Z,22.80
2018-12-14T08:34:51.119Z,22.80
2018-12-14T08:37:20.586Z,22.80
2018-12-14T08:39:49.653Z,22.80
2018-12-14T08:42:18.664Z,22.80
2018-12-14T08:44:47.787Z,22.80
2018-12-14T08:47:16.780Z,22.80
2018-12-14T08:49:45.908Z,22.80
2018-12-14T08:52:14.913Z,22.80
2018-12-14T08:54:43.953Z,22.80
2018-12-14T08:57:13.049Z,22.80
2018-12-14T08:59:42.156Z,22.80
2018-12-14T09:02:11.158Z,22.80
2018-12-14T09:04:40.283Z,22.80
2018-12-14T09:07:09.290Z,22.80
2018-12-14T09:09:38.300Z,22.80
2018-12-14T09:12:07.543Z,22.80
2018-12-14T09:14:36.630Z,22.80
2018-12-14T09:17:05.605Z,22.80
2018-12-14T09:19:34.540Z,22.80
2018-12-14T09:22:03.647Z,22.80
2018-12-14T09:24:32.776Z,22.70
2018-12-14T09:27:01.883Z,22.80
2018-12-14T09:29:30.993Z,22.80
2018-12-14T09:32:00.273Z,22.80
2018-12-14T09:34:29.325Z,22.80
2018-12-14T09:36:58.436Z,22.80
2018-12-14T09:39:27.565Z,22.80
2018-12-14T09:41:56.520Z,22.80
2018-12-14T09:44:25.524Z,22.80
2018-12-14T09:46:54.695Z,22.80
2018-12-14T09:49:23.711Z,22.70
2018-12-14T09:51:52.803Z,22.80
2018-12-14T09:54:21.917Z,22.80
2018-12-14T09:56:50.961Z,22.80
2018-12-14T09:59:20.096Z,22.80
2018-12-14T10:01:49.060Z,22.80
2018-12-14T10:04:18.166Z,22.80
2018-12-14T10:06:47.176Z,22.80
2018-12-14T10:09:16.108Z,22.70
2018-12-14T10:11:45.096Z,22.70
2018-12-14T10:14:14.316Z,22.70
2018-12-14T10:16:43.313Z,22.70
2018-12-14T10:19:12.449Z,22.70
2018-12-14T10:21:41.481Z,22.70
2018-12-14T10:24:10.566Z,22.70
2018-12-14T10:26:39.568Z,22.70
2018-12-14T10:29:08.581Z,22.70
2018-12-14T10:31:37.586Z,22.80
2018-12-14T10:34:06.496Z,22.80
2018-12-14T10:36:35.515Z,22.80
2018-12-14T10:39:05.064Z,22.80
2018-12-14T10:41:34.155Z,22.80
2018-12-14T10:44:07.394Z,22.70
2018-12-14T10:46:34.404Z,22.70
2018-12-14T10:49:03.437Z,22.70
2018-12-14T10:51:32.786Z,22.80
2018-12-14T10:54:01.768Z,22.70
2018-12-14T10:56:30.655Z,22.70
2018-12-14T10:58:59.896Z,22.70
2018-12-14T11:01:34.087Z,22.70
2018-12-14T11:04:03.137Z,22.70
2018-12-14T11:06:32.132Z,22.70
2018-12-14T11:09:01.361Z,22.70
2018-12-14T11:11:30.642Z,22.70
2018-12-14T11:13:59.611Z,22.70
2018-12-14T11:16:28.403Z,22.70
2018-12-14T11:18:57.272Z,22.70
2018-12-14T11:21:26.295Z,22.70
2018-12-14T11:23:55.185Z,22.70
2018-12-14T11:26:24.359Z,22.70
2018-12-14T11:28:53.328Z,22.70
2018-12-14T11:31:22.347Z,22.70
2018-12-14T11:33:51.241Z,22.70
2018-12-14T11:36:20.352Z,22.70
2018-12-14T11:38:49.234Z,22.70
2018-12-14T11:41:18.622Z,22.70
2018-12-14T11:43:47.933Z,22.70
2018-12-14T11:46:16.912Z,22.60
2018-12-14T11:48:45.890Z,22.70
2018-12-14T11:51:18.240Z,22.60
2018-12-14T11:53:47.213Z,22.70
2018-12-14T11:56:16.244Z,22.60
2018-12-14T11:58:45.122Z,22.70
2018-12-14T12:01:14.183Z,22.70
2018-12-14T12:03:43.084Z,22.70
2018-12-14T12:06:12.159Z,22.70
2018-12-14T12:08:41.179Z,22.60
2018-12-14T12:11:10.294Z,22.60
2018-12-14T12:13:39.304Z,22.60
2018-12-14T12:16:08.441Z,22.60
2018-12-14T12:18:37.897Z,22.60
2018-12-14T12:21:06.843Z,22.60
2018-12-14T12:23:35.855Z,22.60
2018-12-14T12:26:04.856Z,22.60
2018-12-14T12:28:33.798Z,22.60
2018-12-14T12:31:02.770Z,22.60
2018-12-14T12:33:31.812Z,22.60
2018-12-14T12:36:00.803Z,22.60
2018-12-14T12:38:29.828Z,22.60
2018-12-14T12:40:58.829Z,22.60
2018-12-14T12:43:27.822Z,22.60
2018-12-14T12:45:56.826Z,22.60
2018-12-14T12:48:25.841Z,22.60
2018-12-14T12:50:54.901Z,22.60
2018-12-14T12:53:23.785Z,22.60
2018-12-14T12:55:52.678Z,22.60
2018-12-14T12:58:22.198Z,22.60
2018-12-14T13:00:51.221Z,22.60
2018-12-14T13:03:20.222Z,22.60
2018-12-14T13:05:49.233Z,22.60
2018-12-14T13:08:18.233Z,22.60
2018-12-14T13:10:47.294Z,22.60
2018-12-14T13:13:16.253Z,22.60
2018-12-14T13:15:45.169Z,22.60
2018-12-14T13:18:14.193Z,22.60
2018-12-14T13:20:43.080Z,22.60
2018-12-14T13:23:12.237Z,22.60
2018-12-14T13:25:41.231Z,22.60
2018-12-14T13:28:10.598Z,22.60
2018-12-14T13:30:39.901Z,22.60
2018-12-14T13:33:09.013Z,22.50
2018-12-14T13:35:38.102Z,22.60
2018-12-14T13:38:07.217Z,22.50
2018-12-14T13:40:36.428Z,22.60
2018-12-14T13:43:05.321Z,22.60
2018-12-14T13:45:34.247Z,22.60
2018-12-14T13:48:03.281Z,22.50
2018-12-14T13:50:32.361Z,22.60
2018-12-14T13:53:01.454Z,22.50
2018-12-14T13:55:30.581Z,22.50
2018-12-14T13:57:59.725Z,22.50
2018-12-14T14:00:28.740Z,22.50
2018-12-14T14:02:57.816Z,22.50
2018-12-14T14:05:26.923Z,22.50
2018-12-14T14:07:56.049Z,22.50
2018-12-14T14:10:25.153Z,22.50
2018-12-14T14:12:54.280Z,22.50
2018-12-14T14:15:23.272Z,22.50
2018-12-14T14:17:52.390Z,22.50
2018-12-14T14:20:21.398Z,22.50
2018-12-14T14:22:50.508Z,22.50
2018-12-14T14:25:19.506Z,22.50
2018-12-14T14:27:48.580Z,22.50
2018-12-14T14:30:17.660Z,22.50
2018-12-14T14:32:46.760Z,22.50
2018-12-14T14:35:15.734Z,22.50
2018-12-14T14:37:44.874Z,22.50
2018-12-14T14:40:13.889Z,22.50
2018-12-14T14:42:43.005Z,22.50
2018-12-14T14:45:12.116Z,22.50
2018-12-14T14:47:41.020Z,22.50
2018-12-14T14:50:10.312Z,22.50
2018-12-14T14:52:39.373Z,22.60
2018-12-14T14:55:08.586Z,22.60
2018-12-14T14:57:38.065Z,22.60
2018-12-14T15:00:07.618Z,22.60
2018-12-14T15:02:36.942Z,22.60
2018-12-14T15:05:06.378Z,22.60
2018-12-14T15:07:35.460Z,22.60
2018-12-14T15:10:04.892Z,22.60
2018-12-14T15:12:34.113Z,22.60
2018-12-14T15:15:06.564Z,22.60
2018-12-14T15:17:34.267Z,22.60
2018-12-14T15:20:03.218Z,22.60
2018-12-14T15:22:32.201Z,22.60
2018-12-14T15:25:01.212Z,22.60
2018-12-14T15:27:30.218Z,22.70
2018-12-14T15:29:59.215Z,22.70
2018-12-14T15:32:28.436Z,22.70
2018-12-14T15:34:57.450Z,22.70
2018-12-14T15:37:26.465Z,22.70
2018-12-14T15:39:55.481Z,22.70
2018-12-14T15:42:24.493Z,22.70
2018-12-14T15:44:53.396Z,22.70
2018-12-14T15:47:22.299Z,22.70
2018-12-14T15:49:51.319Z,22.70
2018-12-14T15:52:20.440Z,22.70
2018-12-14T15:54:49.630Z,22.60
2018-12-14T15:57:18.791Z,22.60
2018-12-14T15:59:47.753Z,22.60
2018-12-14T16:02:16.788Z,22.60
2018-12-14T16:04:45.791Z,22.60
2018-12-14T16:07:15.564Z,22.60
2018-12-14T16:09:44.530Z,22.60
2018-12-14T16:12:14.199Z,22.60
2018-12-14T16:14:43.278Z,22.60
2018-12-14T16:17:12.398Z,22.60
2018-12-14T16:19:41.390Z,22.50
2018-12-14T16:22:10.623Z,22.60
2018-12-14T16:24:39.755Z,22.60
2018-12-14T16:27:08.836Z,22.60
2018-12-14T16:29:37.921Z,22.60
2018-12-14T16:32:06.948Z,22.70
2018-12-14T16:34:35.897Z,22.70
2018-12-14T16:37:04.861Z,22.70
2018-12-14T16:39:34.021Z,22.70
2018-12-14T16:42:03.196Z,22.70
2018-12-14T16:44:32.205Z,22.70
2018-12-14T16:47:01.517Z,22.80
2018-12-14T16:49:30.556Z,22.80
2018-12-14T16:51:59.559Z,22.70
2018-12-14T16:54:28.576Z,22.70
2018-12-14T16:56:57.673Z,22.60
2018-12-14T16:59:26.674Z,22.60
2018-12-14T17:01:55.705Z,22.60
2018-12-14T17:04:24.793Z,22.60
2018-12-14T17:06:53.828Z,22.60
2018-12-14T17:09:22.924Z,22.60
2018-12-14T17:11:52.060Z,22.50
2018-12-14T17:14:21.175Z,22.50
2018-12-14T17:16:50.278Z,22.50
2018-12-14T17:19:19.277Z,22.50
2018-12-14T17:21:48.291Z,22.40
2018-12-14T17:24:17.291Z,22.40
2018-12-14T17:26:46.428Z,22.50
2018-12-14T17:29:15.421Z,22.40
2018-12-14T17:31:44.542Z,22.40
2018-12-14T17:34:13.650Z,22.30
2018-12-14T17:36:42.761Z,22.40
2018-12-14T17:39:11.757Z,22.30
2018-12-14T17:41:40.885Z,22.30
2018-12-14T17:44:09.872Z,22.40
2018-12-14T17:46:39.298Z,22.40
2018-12-14T17:49:08.316Z,22.50
2018-12-14T17:51:37.594Z,22.50
2018-12-14T17:54:06.660Z,22.50
2018-12-14T17:56:35.651Z,22.60
2018-12-14T17:59:04.790Z,22.60
2018-12-14T18:01:33.824Z,22.60
2018-12-14T18:04:02.802Z,22.70
2018-12-14T18:06:32.481Z,22.70
2018-12-14T18:09:01.631Z,22.70
2018-12-14T18:11:30.870Z,22.70
2018-12-14T18:13:59.889Z,22.80
2018-12-14T18:16:29.342Z,22.90
2018-12-14T18:18:58.519Z,22.90
2018-12-14T18:21:27.518Z,22.90
2018-12-14T18:23:56.523Z,23.00
2018-12-14T18:26:25.607Z,23.00
2018-12-14T18:28:54.923Z,22.90
2018-12-14T18:31:23.676Z,22.90
2018-12-14T18:33:52.824Z,22.90
2018-12-14T18:36:22.075Z,22.90
2018-12-14T18:38:51.306Z,23.00
2018-12-14T18:41:20.882Z,23.00
2018-12-14T18:43:50.179Z,23.10
2018-12-14T18:46:19.147Z,23.10
2018-12-14T18:48:48.176Z,23.10
2018-12-14T18:51:17.226Z,23.10
2018-12-14T18:53:56.346Z,23.10
2018-12-14T18:56:25.754Z,23.10
2018-12-14T18:58:54.697Z,23.20
2018-12-14T19:01:23.660Z,23.20
2018-12-14T19:03:54.943Z,23.20
2018-12-14T19:06:24.088Z,23.20
2018-12-14T19:08:53.035Z,23.20
2018-12-14T19:11:22.231Z,23.10
2018-12-14T19:13:51.316Z,23.10
2018-12-14T19:16:20.373Z,23.10
2018-12-14T19:18:49.386Z,23.00
2018-12-14T19:21:19.199Z,23.00
2018-12-14T19:23:48.326Z,23.00
2018-12-14T19:26:17.505Z,23.00
2018-12-14T19:28:46.651Z,23.00
2018-12-14T19:31:15.685Z,23.10
2018-12-14T19:33:44.787Z,23.20
2018-12-14T19:36:13.710Z,23.20
2018-12-14T19:38:42.700Z,23.30
2018-12-14T19:41:11.720Z,23.40
2018-12-14T19:43:40.825Z,23.40
2018-12-14T19:46:10.186Z,23.40
2018-12-14T19:48:40.160Z,23.40
2018-12-14T19:51:09.290Z,23.40
2018-12-14T19:53:38.203Z,23.50
2018-12-14T19:56:07.213Z,23.50
2018-12-14T19:58:36.211Z,23.50
2018-12-14T20:01:05.115Z,23.50
2018-12-14T20:03:34.032Z,23.50
2018-12-14T20:06:03.034Z,23.40
2018-12-14T20:08:32.055Z,23.50
2018-12-14T20:11:01.706Z,23.50
2018-12-14T20:13:31.721Z,23.40
2018-12-14T20:16:00.708Z,23.50
2018-12-14T20:18:29.837Z,23.50
2018-12-14T20:20:58.892Z,23.50
2018-12-14T20:23:28.018Z,23.50
2018-12-14T20:25:56.916Z,23.50
2018-12-14T20:28:25.880Z,23.50
2018-12-14T20:30:55.000Z,23.50
2018-12-14T20:33:24.127Z,23.50
2018-12-14T20:35:53.143Z,23.50
2018-12-14T20:38:22.232Z,23.50
2018-12-14T20:40:52.014Z,23.50
2018-12-14T20:43:21.098Z,23.50
2018-12-14T20:45:50.154Z,23.50
2018-12-14T20:48:19.304Z,23.50
2018-12-14T20:50:48.252Z,23.40
2018-12-14T20:53:17.922Z,23.30
2018-12-14T20:55:46.948Z,23.30
2018-12-14T20:58:16.039Z,23.20
2018-12-14T21:00:45.044Z,23.20
2018-12-14T21:03:14.063Z,23.10
2018-12-14T21:05:43.191Z,23.10
2018-12-14T21:08:12.197Z,23.10
2018-12-14T21:10:41.304Z,23.00
2018-12-14T21:13:10.175Z,23.00
2018-12-14T21:15:39.215Z,23.00
2018-12-14T21:18:08.126Z,23.00
2018-12-14T21:20:37.235Z,23.00
2018-12-14T21:23:06.337Z,23.00
2018-12-14T21:25:35.365Z,23.00
2018-12-14T21:28:05.752Z,22.90
2018-12-14T21:30:34.923Z,22.90
2018-12-14T21:33:03.920Z,22.90
2018-12-14T21:35:32.927Z,22.90
2018-12-14T21:38:02.062Z,22.90
2018-12-14T21:40:31.233Z,22.90
2018-12-14T21:43:00.289Z,22.80
2018-12-14T21:45:29.305Z,22.80
2018-12-14T21:47:58.427Z,22.80
2018-12-14T21:50:27.559Z,22.80
2018-12-14T21:52:56.657Z,22.80
2018-12-14T21:55:26.269Z,22.80
2018-12-14T21:57:55.411Z,22.80
2018-12-14T22:00:24.503Z,22.80
2018-12-14T22:02:53.496Z,22.80
2018-12-14T22:05:22.923Z,22.80
2018-12-14T22:07:52.428Z,22.80
2018-12-14T22:10:21.544Z,22.80
2018-12-14T22:12:50.542Z,22.80
2018-12-14T22:19:57.434Z,22.80
2018-12-14T22:22:26.424Z,22.80
2018-12-14T22:24:55.551Z,22.70
2018-12-14T22:27:24.415Z,22.70
2018-12-14T22:29:53.356Z,22.70
2018-12-14T22:32:22.467Z,22.70
2018-12-14T22:34:51.580Z,22.70
2018-12-14T22:37:20.714Z,22.60
2018-12-14T22:39:50.065Z,22.60
2018-12-14T22:42:19.124Z,22.70
2018-12-14T22:44:48.193Z,22.70
2018-12-14T22:47:17.255Z,22.60
2018-12-14T22:49:46.211Z,22.60
2018-12-14T22:52:15.115Z,22.60
2018-12-14T22:54:44.472Z,22.60
2018-12-14T22:57:13.609Z,22.60
2018-12-14T22:59:42.710Z,22.60
2018-12-14T23:02:11.724Z,22.60
2018-12-14T23:04:40.827Z,22.50
2018-12-14T23:07:09.841Z,22.60
2018-12-14T23:09:38.960Z,22.50
2018-12-14T23:12:07.972Z,22.50
2018-12-14T23:14:36.972Z,22.50
2018-12-14T23:17:05.931Z,22.50
2018-12-14T23:19:34.805Z,22.50
2018-12-14T23:22:03.787Z,22.50
2018-12-14T23:24:32.711Z,22.50
2018-12-14T23:27:01.791Z,22.50
2018-12-14T23:29:30.751Z,22.50
2018-12-14T23:31:59.763Z,22.50
2018-12-14T23:34:29.260Z,22.50
2018-12-14T23:36:58.279Z,22.50
2018-12-14T23:39:27.400Z,22.50
2018-12-14T23:41:56.410Z,22.40
2018-12-14T23:44:25.531Z,22.50
2018-12-14T23:46:58.806Z,22.50
2018-12-14T23:49:25.697Z,22.50
2018-12-14T23:51:54.710Z,22.40
2018-12-14T23:54:23.885Z,22.40
2018-12-14T23:56:52.926Z,22.50
2018-12-14T23:59:21.983Z,22.50
